Time;durP1;ratioP1;P1;durP2;ratioP2;P2;SDS_P1;SDS_P2;PMS_P1;PMS_P2;Temp;Humidity;BMP_temperature;BMP_pressure;BME280_temperature;BME280_humidity;BME280_pressure;Samples;Min_cycle;Max_cycle;Signal;HPM_P1;HPM_P2
2023/12/30 00:00:19;;;;;;;8.93;3.10;;;;;;;13.80;58.87;100222.03;682580;28;1173;-89
2023/12/30 00:00:40;;;;;;;8.00;2.97;;;;;;;13.83;59.36;100198.47;685215;28;1276;-89
2023/12/30 00:01:00;;;;;;;7.10;2.93;;;;;;;13.85;58.91;100215.06;688076;28;1420;-90
2023/12/30 00:01:21;;;;;;;5.60;2.63;;;;;;;13.97;58.93;100217.75;689441;28;1268;-89
2023/12/30 00:01:45;;;;;;;11.15;3.10;;;;;;;13.94;59.51;100196.75;687114;28;1396;-90
2023/12/30 00:02:07;;;;;;;12.00;3.10;;;;;;;13.92;59.09;100198.50;685831;28;1398;-90
2023/12/30 00:02:28;;;;;;;12.77;2.78;;;;;;;13.73;58.75;100196.63;693381;28;1233;-89
2023/12/30 00:02:49;;;;;;;10.30;2.60;;;;;;;13.75;58.45;100208.88;693106;28;902;-90
2023/12/30 00:03:09;;;;;;;9.70;2.50;;;;;;;13.81;58.95;100205.41;692701;28;1335;-89
2023/12/30 00:03:30;;;;;;;8.50;2.60;;;;;;;13.85;58.95;100202.81;689999;28;936;-89
2023/12/30 00:03:51;;;;;;;6.47;2.30;;;;;;;13.90;58.86;100215.94;690438;28;1260;-89
2023/12/30 00:04:12;;;;;;;5.93;2.25;;;;;;;13.83;59.39;100206.34;690459;28;1372;-89
2023/12/30 00:04:33;;;;;;;9.20;2.40;;;;;;;13.93;58.86;100218.63;687880;28;1042;-89
2023/12/30 00:04:54;;;;;;;8.88;2.53;;;;;;;14.01;59.14;100208.16;685434;28;868;-89
2023/12/30 00:05:17;;;;;;;9.25;2.83;;;;;;;13.97;59.00;100212.50;682857;28;1220;-90
2023/12/30 00:05:38;;;;;;;10.30;3.08;;;;;;;14.06;58.95;100203.81;690457;28;1303;-90
2023/12/30 00:05:59;;;;;;;9.52;3.03;;;;;;;14.01;59.01;100189.78;688138;28;1122;-89
2023/12/30 00:06:19;;;;;;;6.70;2.58;;;;;;;14.08;58.57;100209.06;687987;28;1098;-89
2023/12/30 00:06:40;;;;;;;4.95;2.50;;;;;;;14.07;58.81;100212.56;687957;28;824;-90
2023/12/30 00:07:01;;;;;;;7.13;2.33;;;;;;;13.96;58.64;100200.25;687998;28;777;-90
2023/12/30 00:07:21;;;;;;;9.07;2.80;;;;;;;14.06;58.28;100218.66;687789;28;1159;-90
2023/12/30 00:07:43;;;;;;;8.70;2.72;;;;;;;14.06;58.53;100216.03;691409;28;1290;-88
2023/12/30 00:08:04;;;;;;;7.75;2.70;;;;;;;14.13;58.69;100220.47;690746;28;1063;-90
2023/12/30 00:08:25;;;;;;;7.22;2.70;;;;;;;14.13;58.54;100220.47;687764;28;1266;-89
2023/12/30 00:08:46;;;;;;;8.77;2.70;;;;;;;14.09;58.47;100219.56;690487;28;1229;-90
2023/12/30 00:09:07;;;;;;;8.57;2.70;;;;;;;14.00;58.54;100226.53;693027;28;1223;-88
2023/12/30 00:09:28;;;;;;;9.40;2.53;;;;;;;14.03;59.01;100221.28;687801;28;1369;-88
2023/12/30 00:09:48;;;;;;;9.27;2.63;;;;;;;13.97;59.07;100217.75;685229;28;1263;-89
2023/12/30 00:10:09;;;;;;;7.47;2.40;;;;;;;13.93;59.37;100216.00;688020;28;989;-89
2023/12/30 00:10:30;;;;;;;6.47;2.40;;;;;;;13.98;59.10;100230.03;690651;28;1910;-90
2023/12/30 00:10:51;;;;;;;5.38;2.60;;;;;;;13.92;59.02;100229.97;690748;28;1294;-90
2023/12/30 00:11:12;;;;;;;7.32;2.70;;;;;;;13.96;59.02;100213.38;689980;28;1330;-88
2023/12/30 00:11:32;;;;;;;6.63;2.50;;;;;;;13.98;59.26;100237.88;690626;28;1227;-90
2023/12/30 00:11:57;;;;;;;5.60;2.20;;;;;;;13.95;59.80;100229.13;685407;28;1162;-89
2023/12/30 00:12:21;;;;;;;5.05;2.50;;;;;;;13.96;59.66;100239.59;688599;28;1040;-90
2023/12/30 00:12:41;;;;;;;5.22;2.80;;;;;;;13.93;59.00;100218.63;689811;28;1388;-89
2023/12/30 00:13:02;;;;;;;8.23;2.65;;;;;;;13.94;58.07;100238.72;688149;28;1289;-88
2023/12/30 00:13:25;;;;;;;9.63;2.70;;;;;;;13.85;57.23;100208.06;687982;28;970;-89
2023/12/30 00:13:46;;;;;;;13.50;2.72;;;;;;;13.95;57.85;100224.72;691201;28;818;-90
2023/12/30 00:14:07;;;;;;;10.37;3.00;;;;;;;13.97;58.78;100220.38;687817;28;1199;-89
2023/12/30 00:14:27;;;;;;;8.85;3.05;;;;;;;14.01;58.77;100226.50;687899;28;1229;-89
2023/12/30 00:14:48;;;;;;;6.13;3.10;;;;;;;14.06;59.05;100219.53;687720;28;1268;-89
2023/12/30 00:15:09;;;;;;;6.57;2.70;;;;;;;14.04;59.00;100238.78;691990;28;1202;-89
2023/12/30 00:15:30;;;;;;;9.35;2.58;;;;;;;14.07;58.57;100236.19;687699;28;1377;-89
2023/12/30 00:15:51;;;;;;;8.88;2.35;;;;;;;13.98;58.41;100219.53;693287;28;1255;-90
2023/12/30 00:16:13;;;;;;;11.30;2.78;;;;;;;14.05;58.71;100227.41;687682;28;1158;-90
2023/12/30 00:16:34;;;;;;;8.40;2.75;;;;;;;14.00;59.18;100226.53;685047;28;1435;-90
2023/12/30 00:16:54;;;;;;;7.93;2.50;;;;;;;13.96;57.96;100213.38;690669;28;1198;-89
2023/12/30 00:17:15;;;;;;;4.50;2.10;;;;;;;14.01;58.76;100212.53;693319;28;1083;-89
2023/12/30 00:17:36;;;;;;;9.00;2.30;;;;;;;14.01;58.92;100213.38;689490;28;1299;-89
2023/12/30 00:17:56;;;;;;;10.05;2.72;;;;;;;14.09;58.97;100216.06;690777;28;1310;-90
2023/12/30 00:18:17;;;;;;;11.17;2.87;;;;;;;14.14;59.04;100224.00;687852;28;1204;-90
2023/12/30 00:18:38;;;;;;;6.35;2.55;;;;;;;14.10;58.58;100209.94;685204;28;1287;-91
2023/12/30 00:18:58;;;;;;;8.27;2.30;;;;;;;14.10;58.87;100220.44;685313;28;1214;-89
2023/12/30 00:19:19;;;;;;;9.00;2.30;;;;;;;14.03;59.01;100210.78;686501;28;1187;-89
2023/12/30 00:19:44;;;;;;;9.45;2.38;;;;;;;14.11;58.95;100222.22;686430;28;1237;-90
2023/12/30 00:20:06;;;;;;;8.15;2.85;;;;;;;14.06;58.71;100231.78;687687;28;1386;-91
2023/12/30 00:20:26;;;;;;;10.25;3.20;;;;;;;13.95;57.22;100209.00;685153;28;1347;-90
2023/12/30 00:20:47;;;;;;;10.82;3.05;;;;;;;13.97;58.99;100222.13;685214;28;1208;-91
2023/12/30 00:21:08;;;;;;;16.60;3.20;;;;;;;13.98;58.67;100219.53;690613;28;1109;-89
2023/12/30 00:21:28;;;;;;;15.10;3.00;;;;;;;14.02;58.59;100227.41;690537;28;1193;-89
2023/12/30 00:21:49;;;;;;;12.82;2.88;;;;;;;14.11;58.72;100224.84;682601;29;1187;-90
2023/12/30 00:22:10;;;;;;;8.23;2.80;;;;;;;14.01;58.37;100218.63;687992;28;1137;-90
2023/12/30 00:22:31;;;;;;;6.78;2.70;;;;;;;14.02;58.08;100219.53;687870;28;1243;-91
2023/12/30 00:22:52;;;;;;;7.18;2.83;;;;;;;14.07;58.16;100233.56;690389;28;1284;-90
2023/12/30 00:23:13;;;;;;;6.78;2.80;;;;;;;14.05;58.38;100204.69;684971;28;1228;-90
2023/12/30 00:23:42;;;;;;;7.10;2.92;;;;;;;14.13;58.72;100225.72;684778;28;1196;-90
2023/12/30 00:24:03;;;;;;;7.80;2.90;;;;;;;13.93;57.34;100209.84;682366;29;1041;-90
2023/12/30 00:24:24;;;;;;;7.90;2.90;;;;;;;13.90;58.17;100223.81;682610;29;1343;-90
2023/12/30 00:24:45;;;;;;;6.75;2.63;;;;;;;13.86;58.06;100208.97;687751;28;1154;-90
2023/12/30 00:25:10;;;;;;;6.43;2.40;;;;;;;13.89;57.98;100222.06;690684;28;1149;-89
2023/12/30 00:25:30;;;;;;;5.80;2.30;;;;;;;13.81;57.96;100226.41;687841;28;1291;-88
2023/12/30 00:25:53;;;;;;;6.43;2.40;;;;;;;13.76;57.59;100196.66;688127;28;755;-90
2023/12/30 00:26:24;;;;;;;7.38;2.30;;;;;;;13.81;57.32;100211.56;687984;28;1379;-90
2023/12/30 00:27:05;;;;;;;4.80;2.35;;;;;;;13.90;57.10;100226.44;687707;28;1532;-90
2023/12/30 00:27:26;;;;;;;4.63;2.35;;;;;;;13.89;56.94;100229.94;685077;28;1314;-90
2023/12/30 00:27:49;;;;;;;6.90;2.63;;;;;;;13.89;57.74;100214.19;693467;28;1186;-90
2023/12/30 00:28:09;;;;;;;6.55;2.55;;;;;;;13.92;57.76;100222.09;690792;28;1269;-90
2023/12/30 00:28:30;;;;;;;6.72;2.60;;;;;;;13.90;57.35;100226.44;687983;28;1264;-91
2023/12/30 00:28:52;;;;;;;5.82;2.65;;;;;;;14.03;57.81;100240.53;685206;28;1215;-90
2023/12/30 00:29:13;;;;;;;4.85;2.60;;;;;;;13.97;57.72;100237.88;687810;28;1153;-89
2023/12/30 00:29:38;;;;;;;6.80;2.70;;;;;;;13.86;57.61;100245.69;687883;28;1324;-91
2023/12/30 00:30:03;;;;;;;6.63;2.80;;;;;;;13.89;57.31;100229.94;690587;28;1160;-90
2023/12/30 00:30:24;;;;;;;6.18;2.60;;;;;;;13.84;56.64;100231.69;692912;28;1914;-90
2023/12/30 00:30:44;;;;;;;6.18;2.40;;;;;;;13.76;57.98;100268.34;685070;28;1250;-89
2023/12/30 00:31:08;;;;;;;5.97;2.50;;;;;;;13.69;56.95;100259.56;690551;28;1094;-90
2023/12/30 00:31:29;;;;;;;7.82;3.00;;;;;;;13.60;57.01;100243.78;690709;28;1141;-88
2023/12/30 00:31:50;;;;;;;7.30;2.90;;;;;;;13.75;57.72;100263.09;687605;28;1253;-88
2023/12/30 00:32:11;;;;;;;7.70;2.73;;;;;;;13.63;56.82;100263.88;686426;28;1283;-89
2023/12/30 00:32:34;;;;;;;9.63;2.80;;;;;;;13.65;57.30;100236.78;687774;28;1274;-88
2023/12/30 00:32:56;;;;;;;13.85;3.10;;;;;;;13.68;56.66;100241.19;687359;28;1130;-89
2023/12/30 00:33:17;;;;;;;9.40;2.90;;;;;;;13.69;57.09;100233.34;685228;28;1186;-90
2023/12/30 00:33:39;;;;;;;9.95;2.47;;;;;;;13.73;57.69;100238.59;685388;28;1450;-90
2023/12/30 00:34:01;;;;;;;6.60;2.30;;;;;;;13.57;56.52;100228.88;685483;28;1418;-89
2023/12/30 00:34:22;;;;;;;6.55;2.42;;;;;;;13.78;57.68;100257.88;688003;28;1035;-91
2023/12/30 00:34:42;;;;;;;6.18;2.70;;;;;;;13.66;57.44;100249.03;687965;28;1186;-90
2023/12/30 00:35:03;;;;;;;6.97;2.63;;;;;;;13.67;57.55;100240.31;689222;28;1434;-90
2023/12/30 00:35:24;;;;;;;5.70;2.20;;;;;;;13.69;57.70;100241.19;685369;28;1325;-90
2023/12/30 00:35:45;;;;;;;4.82;2.10;;;;;;;13.68;57.70;100247.31;687915;28;1225;-90
2023/12/30 00:36:07;;;;;;;5.18;2.40;;;;;;;13.69;57.78;100253.41;682497;28;1236;-90
2023/12/30 00:36:28;;;;;;;8.93;2.72;;;;;;;13.64;57.78;100235.03;685321;28;1190;-89
2023/12/30 00:36:50;;;;;;;8.70;2.50;;;;;;;13.67;57.63;100250.81;687695;28;1376;-90
2023/12/30 00:37:13;;;;;;;7.97;2.20;;;;;;;13.53;57.40;100252.44;688651;28;1489;-89
2023/12/30 00:37:34;;;;;;;7.50;2.13;;;;;;;13.58;57.85;100240.22;687576;28;1376;-90
2023/12/30 00:37:55;;;;;;;13.90;2.53;;;;;;;13.53;56.71;100252.44;688033;28;1278;-89
2023/12/30 00:38:15;;;;;;;18.50;2.53;;;;;;;13.58;56.94;100255.97;687779;28;1185;-90
2023/12/30 00:38:36;;;;;;;15.50;2.57;;;;;;;13.56;56.82;100241.97;688433;28;1211;-90
2023/12/30 00:38:56;;;;;;;10.52;2.65;;;;;;;13.49;56.75;100235.81;688022;28;1220;-90
2023/12/30 00:39:17;;;;;;;5.38;2.70;;;;;;;13.49;57.76;100259.41;689371;28;1238;-89
2023/12/30 00:39:40;;;;;;;5.13;2.77;;;;;;;13.52;57.60;100229.72;693304;28;1182;-88
2023/12/30 00:40:01;;;;;;;5.32;2.78;;;;;;;13.47;57.40;100247.16;690670;28;870;-91
2023/12/30 00:40:22;;;;;;;5.85;2.75;;;;;;;13.35;57.37;100259.31;688303;28;1436;-90
2023/12/30 00:40:43;;;;;;;6.53;2.43;;;;;;;13.40;57.49;100257.59;687895;28;1458;-90
2023/12/30 00:41:03;;;;;;;6.22;2.25;;;;;;;13.39;57.26;100241.88;685319;28;1168;-90
2023/12/30 00:41:26;;;;;;;5.75;2.22;;;;;;;13.48;56.90;100255.03;688792;28;1361;-89
2023/12/30 00:41:47;;;;;;;6.25;2.58;;;;;;;13.54;57.53;100256.81;688042;28;1277;-90
2023/12/30 00:42:07;;;;;;;7.33;2.90;;;;;;;13.64;57.62;100255.16;684736;28;1434;-89
2023/12/30 00:42:28;;;;;;;7.60;2.80;;;;;;;13.61;57.59;100240.28;682605;28;1138;-89
2023/12/30 00:42:49;;;;;;;6.60;2.70;;;;;;;13.59;57.16;100239.41;693007;28;1359;-90
2023/12/30 00:43:10;;;;;;;8.35;2.50;;;;;;;13.64;57.43;100235.03;687548;28;1112;-91
2023/12/30 00:43:31;;;;;;;10.30;2.70;;;;;;;13.70;57.48;100261.31;685295;28;1262;-89
2023/12/30 00:43:52;;;;;;;10.38;2.75;;;;;;;13.73;57.39;100264.81;690769;28;1262;-91
2023/12/30 00:44:13;;;;;;;10.52;2.70;;;;;;;13.67;57.30;100256.06;690692;28;1285;-90
2023/12/30 00:44:34;;;;;;;9.02;2.70;;;;;;;13.65;56.93;100246.41;690307;28;1168;-90
2023/12/30 00:44:55;;;;;;;10.57;3.10;;;;;;;13.53;56.15;100248.06;685500;28;1247;-90
2023/12/30 00:45:15;;;;;;;7.60;3.13;;;;;;;13.69;57.21;100258.66;685510;28;1295;-90
2023/12/30 00:45:36;;;;;;;5.43;2.73;;;;;;;13.64;56.60;100237.66;685284;28;1253;-91
2023/12/30 00:45:57;;;;;;;5.25;2.42;;;;;;;13.68;56.77;100234.22;685314;28;1063;-90
2023/12/30 00:46:21;;;;;;;5.72;2.40;;;;;;;13.65;56.92;100223.69;688023;28;1212;-90
2023/12/30 00:46:42;;;;;;;6.70;2.40;;;;;;;13.75;56.99;100247.38;684019;28;1054;-91
2023/12/30 00:47:02;;;;;;;6.03;2.40;;;;;;;13.67;57.26;100249.91;682475;28;1291;-89
2023/12/30 00:47:23;;;;;;;5.78;2.30;;;;;;;13.72;57.38;100250.84;685047;28;1331;-91
2023/12/30 00:47:44;;;;;;;6.00;2.40;;;;;;;13.55;56.41;100237.59;690660;28;1421;-90
2023/12/30 00:48:04;;;;;;;7.13;2.63;;;;;;;13.67;57.21;100266.53;693392;28;1227;-90
2023/12/30 00:48:25;;;;;;;9.20;2.70;;;;;;;13.61;57.26;100245.53;693379;28;1394;-90
2023/12/30 00:48:47;;;;;;;8.57;2.80;;;;;;;13.59;56.94;100249.00;690617;28;836;-91
2023/12/30 00:49:11;;;;;;;6.80;2.50;;;;;;;13.65;57.19;100249.03;685390;28;1088;-91
2023/12/30 00:49:32;;;;;;;4.82;2.40;;;;;;;13.67;57.43;100260.41;693219;28;1428;-91
2023/12/30 00:49:53;;;;;;;5.03;2.33;;;;;;;13.63;56.95;100259.50;685212;28;1272;-89
2023/12/30 00:50:14;;;;;;;4.60;2.40;;;;;;;13.57;56.96;100267.31;687742;28;1245;-89
2023/12/30 00:50:35;;;;;;;8.10;2.47;;;;;;;13.53;56.93;100255.94;690514;28;1904;-91
2023/12/30 00:50:56;;;;;;;9.57;2.60;;;;;;;13.49;56.94;100248.03;687894;28;1409;-90
2023/12/30 00:51:17;;;;;;;10.27;2.85;;;;;;;13.67;57.03;100271.78;687897;28;1328;-90
2023/12/30 00:51:38;;;;;;;8.40;2.70;;;;;;;13.61;56.96;100260.34;690518;28;1129;-91
2023/12/30 00:51:58;;;;;;;6.45;2.60;;;;;;;13.56;56.36;100269.09;687917;28;1178;-90
2023/12/30 00:52:19;;;;;;;4.60;2.17;;;;;;;13.64;56.62;100281.38;690605;28;1120;-90
2023/12/30 00:52:40;;;;;;;3.83;2.08;;;;;;;13.74;57.15;100269.19;688757;28;1332;-90
2023/12/30 00:53:01;;;;;;;4.20;1.90;;;;;;;13.69;57.21;100270.03;684809;28;1427;-89
2023/12/30 00:53:23;;;;;;;3.85;2.10;;;;;;;13.70;57.28;100277.03;685440;28;1273;-90
2023/12/30 00:53:44;;;;;;;6.20;2.40;;;;;;;13.65;57.31;100257.75;688579;28;827;-91
2023/12/30 00:54:04;;;;;;;5.43;2.22;;;;;;;13.68;56.94;100272.66;695942;28;1205;-89
2023/12/30 00:54:25;;;;;;;6.70;2.60;;;;;;;13.64;56.81;100258.63;690800;28;1083;-90
2023/12/30 00:54:46;;;;;;;6.00;2.65;;;;;;;13.65;57.15;100268.25;691155;28;1263;-90
2023/12/30 00:55:07;;;;;;;6.35;2.60;;;;;;;13.59;56.18;100260.38;687827;28;1244;-90
2023/12/30 00:55:33;;;;;;;7.35;2.63;;;;;;;13.66;55.57;100275.25;690648;28;1264;-88
2023/12/30 00:55:54;;;;;;;6.57;2.45;;;;;;;13.65;55.80;100270.88;686861;28;1616;-90
2023/12/30 00:56:15;;;;;;;5.07;2.50;;;;;;;13.68;55.79;100262.16;687529;28;1400;-89
2023/12/30 00:56:36;;;;;;;6.03;2.47;;;;;;;13.64;54.43;100271.75;690585;28;1235;-89
2023/12/30 00:56:56;;;;;;;5.72;2.67;;;;;;;13.73;55.69;100270.06;685294;28;1211;-90
2023/12/30 00:57:17;;;;;;;6.07;2.60;;;;;;;13.74;55.80;100277.06;685061;28;1722;-90
2023/12/30 00:57:38;;;;;;;6.93;2.80;;;;;;;13.77;55.07;100287.59;689490;28;1232;-89
2023/12/30 00:57:59;;;;;;;8.98;3.10;;;;;;;13.71;55.86;100273.53;690741;28;912;-89
2023/12/30 00:58:20;;;;;;;8.98;3.05;;;;;;;13.76;56.23;100289.31;687669;28;1301;-89
2023/12/30 00:58:41;;;;;;;6.05;2.58;;;;;;;13.69;56.04;100272.66;686404;28;1166;-89
2023/12/30 00:59:02;;;;;;;5.20;2.40;;;;;;;13.74;56.06;100283.19;685152;28;1121;-89
2023/12/30 00:59:23;;;;;;;6.22;2.30;;;;;;;13.73;56.47;100264.81;688023;28;985;-90
2023/12/30 00:59:45;;;;;;;6.50;2.53;;;;;;;13.80;56.27;100287.59;685145;28;1193;-89
2023/12/30 01:00:06;;;;;;;5.93;2.50;;;;;;;13.68;55.60;100293.63;685068;28;1227;-90
2023/12/30 01:00:29;;;;;;;5.43;2.40;;;;;;;13.77;55.65;100282.34;682600;29;1271;-89
2023/12/30 01:00:51;;;;;;;7.85;2.70;;;;;;;13.71;55.50;100289.28;684083;28;1413;-90
2023/12/30 01:01:12;;;;;;;8.85;2.50;;;;;;;13.71;55.61;100283.19;687775;28;1569;-90
2023/12/30 01:01:33;;;;;;;8.80;2.53;;;;;;;13.65;55.72;100283.97;687873;28;1241;-89
2023/12/30 01:01:53;;;;;;;7.80;2.60;;;;;;;13.71;56.00;100280.56;690636;28;1107;-90
2023/12/30 01:02:14;;;;;;;7.53;2.60;;;;;;;13.65;55.67;100272.63;690779;28;1236;-90
2023/12/30 01:02:35;;;;;;;7.50;2.35;;;;;;;13.65;56.13;100286.59;687622;28;1084;-90
2023/12/30 01:02:55;;;;;;;6.17;2.00;;;;;;;13.64;55.70;100295.34;688539;28;1235;-90
2023/12/30 01:03:16;;;;;;;4.40;1.73;;;;;;;13.58;54.89;100290.03;693236;28;1234;-89
2023/12/30 01:03:38;;;;;;;3.42;1.70;;;;;;;13.62;55.48;100283.97;687181;28;1541;-89
2023/12/30 01:03:59;;;;;;;6.72;2.17;;;;;;;13.64;55.09;100289.25;687687;28;1746;-89
2023/12/30 01:04:20;;;;;;;5.82;2.00;;;;;;;13.49;54.49;100295.22;687809;28;1344;-89
2023/12/30 01:04:42;;;;;;;6.45;2.25;;;;;;;13.58;55.15;100292.66;685041;28;1708;-91
2023/12/30 01:05:03;;;;;;;6.90;2.13;;;;;;;13.60;55.53;100290.97;688009;28;1318;-90
2023/12/30 01:05:24;;;;;;;8.10;2.50;;;;;;;13.61;55.03;100302.31;685089;28;1376;-89
2023/12/30 01:05:45;;;;;;;6.75;2.20;;;;;;;13.66;55.06;100288.34;689551;28;1342;-90
2023/12/30 01:06:06;;;;;;;5.97;2.15;;;;;;;13.69;55.34;100293.66;684202;28;1839;-91
2023/12/30 01:06:27;;;;;;;5.03;1.90;;;;;;;13.62;55.06;100297.09;687518;28;964;-90
2023/12/30 01:06:50;;;;;;;4.57;1.93;;;;;;;13.64;55.40;100297.09;687366;28;1109;-90
2023/12/30 01:07:11;;;;;;;7.00;2.20;;;;;;;13.57;53.75;100304.03;687864;28;1676;-90
2023/12/30 01:07:32;;;;;;;6.83;2.13;;;;;;;13.63;54.48;100305.84;690670;28;1414;-90
2023/12/30 01:07:52;;;;;;;9.48;2.28;;;;;;;13.66;54.72;100306.72;685266;28;1212;-90
2023/12/30 01:08:13;;;;;;;6.38;2.00;;;;;;;13.52;54.92;100298.75;688123;28;1169;-90
2023/12/30 01:08:34;;;;;;;6.80;2.20;;;;;;;13.61;55.31;100313.69;692208;28;1210;-89
2023/12/30 01:08:55;;;;;;;3.53;1.92;;;;;;;13.65;55.45;100309.34;685393;28;1254;-90
2023/12/30 01:09:16;;;;;;;6.13;2.20;;;;;;;13.69;55.52;100322.50;685154;28;1291;-90
2023/12/30 01:09:37;;;;;;;6.90;2.20;;;;;;;13.69;55.46;100316.34;687886;28;1381;-89
2023/12/30 01:09:58;;;;;;;9.63;2.30;;;;;;;13.67;55.67;100318.97;693037;28;1264;-90
2023/12/30 01:10:18;;;;;;;7.82;2.30;;;;;;;13.73;55.43;100312.00;690572;28;1271;-90
2023/12/30 01:10:39;;;;;;;6.90;2.13;;;;;;;13.70;55.42;100305.88;686932;28;1212;-90
2023/12/30 01:11:00;;;;;;;4.85;2.15;;;;;;;13.59;55.02;100320.66;685315;28;1180;-89
2023/12/30 01:11:23;;;;;;;4.30;2.10;;;;;;;13.49;54.53;100319.69;690601;28;1392;-89
2023/12/30 01:11:44;;;;;;;7.78;2.40;;;;;;;13.51;54.52;100327.59;686743;28;1278;-90
2023/12/30 01:12:05;;;;;;;8.30;2.13;;;;;;;13.36;53.53;100329.19;687902;28;1151;-90
2023/12/30 01:12:26;;;;;;;8.75;2.00;;;;;;;13.34;54.05;100320.44;687896;28;1295;-90
2023/12/30 01:12:46;;;;;;;5.90;1.55;;;;;;;13.36;54.38;100321.34;689838;28;1459;-91
2023/12/30 01:13:08;;;;;;;5.43;1.48;;;;;;;13.44;54.43;100337.13;690063;28;1369;-90
2023/12/30 01:13:28;;;;;;;8.70;1.60;;;;;;;13.29;53.95;100332.63;682594;28;1277;-89
2023/12/30 01:13:49;;;;;;;7.35;1.60;;;;;;;13.21;54.42;100337.78;687105;28;1193;-89
2023/12/30 01:14:11;;;;;;;4.60;1.50;;;;;;;13.25;54.40;100330.81;690491;28;1343;-89
2023/12/30 01:14:35;;;;;;;2.88;1.50;;;;;;;13.26;54.59;100343.06;688029;28;929;-90
2023/12/30 01:14:56;;;;;;;6.82;1.50;;;;;;;13.21;54.79;100339.53;687893;28;1398;-90
2023/12/30 01:15:16;;;;;;;7.20;1.50;;;;;;;13.16;54.49;100329.88;690556;28;1309;-89
2023/12/30 01:15:37;;;;;;;6.67;1.50;;;;;;;13.01;54.88;100341.06;690375;28;1342;-90
2023/12/30 01:15:58;;;;;;;5.10;1.40;;;;;;;12.96;54.39;100324.41;690915;28;1304;-90
2023/12/30 01:16:19;;;;;;;5.20;1.35;;;;;;;12.95;54.58;100321.78;687929;28;1104;-90
2023/12/30 01:16:40;;;;;;;4.78;1.20;;;;;;;12.94;54.46;100320.03;686051;28;1387;-89
2023/12/30 01:17:01;;;;;;;2.58;1.20;;;;;;;12.98;54.45;100322.69;685303;28;1218;-90
2023/12/30 01:17:21;;;;;;;3.00;1.50;;;;;;;12.95;54.48;100327.00;687868;28;1155;-89
2023/12/30 01:17:42;;;;;;;3.10;1.53;;;;;;;12.92;54.70;100326.97;684017;28;1195;-89
2023/12/30 01:18:03;;;;;;;3.50;1.67;;;;;;;12.91;54.44;100314.72;687745;28;1266;-90
2023/12/30 01:18:25;;;;;;;3.45;1.60;;;;;;;12.94;54.24;100330.50;688120;28;1079;-89
2023/12/30 01:18:45;;;;;;;2.97;1.48;;;;;;;12.91;54.44;100327.81;685121;28;1224;-90
2023/12/30 01:19:07;;;;;;;2.58;1.50;;;;;;;12.97;54.13;100335.78;686020;28;1574;-90
2023/12/30 01:19:28;;;;;;;3.35;1.60;;;;;;;12.96;54.14;100337.50;688901;28;1321;-89
2023/12/30 01:19:49;;;;;;;7.17;1.70;;;;;;;12.96;53.93;100339.28;688347;28;1545;-90
2023/12/30 01:20:10;;;;;;;7.38;1.63;;;;;;;12.92;54.00;100326.97;686434;28;1302;-89
2023/12/30 01:20:30;;;;;;;6.90;1.58;;;;;;;12.87;53.82;100335.66;686431;28;988;-89
2023/12/30 01:20:51;;;;;;;3.25;1.45;;;;;;;12.86;53.95;100328.63;689803;28;1287;-88
2023/12/30 01:21:12;;;;;;;2.90;1.40;;;;;;;12.69;54.10;100320.59;686283;28;1311;-88
2023/12/30 01:21:32;;;;;;;4.60;1.67;;;;;;;12.69;54.03;100319.72;688928;28;1112;-89
2023/12/30 01:21:53;;;;;;;7.88;2.08;;;;;;;12.68;53.52;100328.44;686697;28;1151;-88
2023/12/30 01:22:16;;;;;;;7.38;1.98;;;;;;;12.62;53.17;100339.72;690032;28;1373;-90
2023/12/30 01:22:37;;;;;;;5.05;1.58;;;;;;;12.56;53.63;100324.81;686676;28;1328;-90
2023/12/30 01:22:59;;;;;;;2.20;1.20;;;;;;;12.61;53.92;100328.34;688929;28;1450;-89
2023/12/30 01:23:20;;;;;;;2.45;1.30;;;;;;;12.63;54.08;100330.09;689476;28;1108;-90
2023/12/30 01:23:40;;;;;;;2.58;1.35;;;;;;;12.66;53.88;100314.44;691154;28;1074;-89
2023/12/30 01:24:01;;;;;;;3.60;1.30;;;;;;;12.65;54.10;100323.16;687223;28;1156;-90
2023/12/30 01:24:22;;;;;;;3.20;1.30;;;;;;;12.65;53.88;100337.13;690098;28;1078;-90
2023/12/30 01:24:43;;;;;;;3.15;1.48;;;;;;;12.71;53.74;100349.41;687792;28;1581;-90
2023/12/30 01:25:05;;;;;;;4.30;1.50;;;;;;;12.58;53.93;100330.94;683853;29;1197;-90
2023/12/30 01:25:26;;;;;;;3.83;1.30;;;;;;;12.55;53.74;100338.72;683310;29;1369;-90
2023/12/30 01:25:46;;;;;;;3.25;1.10;;;;;;;12.46;53.47;100334.28;691621;28;1482;-90
2023/12/30 01:26:08;;;;;;;1.50;1.10;;;;;;;12.48;53.61;100336.94;688568;28;937;-90
2023/12/30 01:26:28;;;;;;;3.08;1.30;;;;;;;12.50;53.85;100334.31;688291;28;1565;-89
2023/12/30 01:26:49;;;;;;;4.10;1.40;;;;;;;12.55;53.79;100330.03;686007;28;1275;-90
2023/12/30 01:27:10;;;;;;;5.40;1.50;;;;;;;12.61;53.77;100336.19;685562;28;1446;-90
2023/12/30 01:27:30;;;;;;;3.90;1.30;;;;;;;12.60;53.79;100326.59;688103;28;1161;-90
2023/12/30 01:27:51;;;;;;;3.40;1.35;;;;;;;12.65;53.47;100325.78;687851;28;1202;-90
2023/12/30 01:28:12;;;;;;;2.63;1.30;;;;;;;12.59;53.69;100314.38;688109;28;1237;-90
2023/12/30 01:28:34;;;;;;;4.50;1.30;;;;;;;12.61;53.74;100328.34;691022;28;1206;-90
2023/12/30 01:28:54;;;;;;;4.28;1.27;;;;;;;12.55;53.58;100317.78;688206;28;997;-90
2023/12/30 01:29:15;;;;;;;3.13;1.30;;;;;;;12.58;53.59;100312.63;687880;28;1222;-90
2023/12/30 01:29:35;;;;;;;2.67;1.20;;;;;;;12.55;53.56;100316.94;685233;28;1090;-90
2023/12/30 01:29:56;;;;;;;2.43;1.10;;;;;;;12.68;53.59;100324.09;687900;28;1187;-90
2023/12/30 01:30:17;;;;;;;2.80;1.05;;;;;;;12.70;53.55;100334.56;690323;28;1179;-90
2023/12/30 01:30:37;;;;;;;2.80;1.10;;;;;;;12.56;53.74;100334.38;694441;28;1973;-90
2023/12/30 01:30:58;;;;;;;3.00;1.20;;;;;;;12.52;53.58;100338.72;689821;28;1202;-89
2023/12/30 01:31:19;;;;;;;2.90;1.38;;;;;;;12.63;53.66;100343.19;690384;28;1358;-90
2023/12/30 01:31:40;;;;;;;4.47;1.70;;;;;;;12.72;53.53;100357.28;689570;28;1097;-90
2023/12/30 01:32:01;;;;;;;4.40;1.70;;;;;;;12.64;53.77;100350.22;685013;28;1231;-90
2023/12/30 01:32:21;;;;;;;3.70;1.70;;;;;;;12.61;53.68;100330.97;684978;28;1379;-90
2023/12/30 01:32:42;;;;;;;2.33;1.60;;;;;;;12.60;53.50;100326.59;685943;28;1190;-90
2023/12/30 01:33:03;;;;;;;2.10;1.50;;;;;;;12.64;53.56;100337.97;684824;28;1167;-90
2023/12/30 01:33:25;;;;;;;3.28;1.80;;;;;;;12.69;53.55;100338.94;682507;28;1402;-90
2023/12/30 01:33:46;;;;;;;3.30;1.80;;;;;;;12.65;53.63;100339.72;684952;28;1307;-89
2023/12/30 01:34:06;;;;;;;3.80;1.97;;;;;;;12.62;53.50;100329.25;686864;28;1250;-90
2023/12/30 01:34:27;;;;;;;2.60;1.60;;;;;;;12.68;53.41;100336.28;687809;28;990;-91
2023/12/30 01:34:51;;;;;;;3.80;1.70;;;;;;;12.65;53.53;100334.50;693993;28;1272;-91
2023/12/30 01:35:15;;;;;;;2.97;1.38;;;;;;;12.67;53.54;100330.16;689394;28;1384;-91
2023/12/30 01:35:37;;;;;;;2.67;1.40;;;;;;;12.66;53.29;100335.41;688279;28;1423;-91
2023/12/30 01:35:58;;;;;;;2.58;1.40;;;;;;;12.61;53.07;100333.59;691249;28;1282;-91
2023/12/30 01:36:18;;;;;;;3.03;1.48;;;;;;;12.63;53.25;100344.09;685556;28;1160;-90
2023/12/30 01:36:39;;;;;;;3.50;1.50;;;;;;;12.58;53.48;100337.91;686434;28;1201;-90
2023/12/30 01:37:02;;;;;;;3.65;1.60;;;;;;;12.59;53.15;100335.31;693766;28;1265;-90
2023/12/30 01:37:23;;;;;;;3.75;1.70;;;;;;;12.63;53.77;100353.66;691119;28;1092;-90
2023/12/30 01:37:44;;;;;;;4.30;1.80;;;;;;;12.63;53.67;100351.03;688308;28;932;-89
2023/12/30 01:38:04;;;;;;;5.05;1.92;;;;;;;12.65;53.95;100351.97;688342;28;1040;-90
2023/12/30 01:38:25;;;;;;;4.18;1.85;;;;;;;12.76;53.53;100363.44;691066;28;1276;-90
2023/12/30 01:38:46;;;;;;;5.70;1.60;;;;;;;12.78;53.48;100361.72;695888;28;1243;-91
2023/12/30 01:39:06;;;;;;;6.88;1.52;;;;;;;12.74;53.58;100357.31;693899;28;1329;-90
2023/12/30 01:39:27;;;;;;;7.30;1.60;;;;;;;12.76;53.57;100352.97;691126;28;1168;-90
2023/12/30 01:39:48;;;;;;;4.30;1.60;;;;;;;12.76;53.19;100352.97;685503;28;1320;-88
2023/12/30 01:40:09;;;;;;;3.10;1.60;;;;;;;12.86;53.18;100353.97;688532;28;934;-89
2023/12/30 01:40:29;;;;;;;2.58;1.40;;;;;;;12.91;53.29;100377.59;691019;28;1380;-90
2023/12/30 01:40:53;;;;;;;2.20;1.40;;;;;;;12.81;52.92;100350.41;688563;28;1430;-90
2023/12/30 01:41:13;;;;;;;2.33;1.42;;;;;;;12.82;52.89;100362.63;691058;28;1240;-90
2023/12/30 01:41:34;;;;;;;2.28;1.42;;;;;;;12.84;53.18;100356.56;690739;28;1341;-89